Time;durP1;ratioP1;P1;durP2;ratioP2;P2;SDS_P1;SDS_P2;PMS_P1;PMS_P2;Temp;Humidity;BMP_temperature;BMP_pressure;BME280_temperature;BME280_humidity;BME280_pressure;Samples;Min_cycle;Max_cycle;Signal;HPM_P1;HPM_P2
2021/06/01 00:00:48;;;;;;;11.63;8.48;;;;;;;10.80;75.63;100642.94;2854686;83;21029;-63
2021/06/01 00:04:52;;;;;;;11.83;9.30;;;;;;;10.78;75.66;100641.34;2854692;81;21080;-63
2021/06/01 00:08:54;;;;;;;10.32;8.68;;;;;;;10.75;75.23;100637.59;2854571;83;21081;-63
2021/06/01 00:12:56;;;;;;;13.10;9.50;;;;;;;10.74;75.40;100637.23;2854842;83;21060;-63
2021/06/01 00:16:57;;;;;;;9.83;8.08;;;;;;;10.74;75.20;100638.09;2854792;82;21061;-63
2021/06/01 00:20:59;;;;;;;11.40;9.03;;;;;;;10.69;75.30;100633.59;2854601;83;21087;-63
2021/06/01 00:25:01;;;;;;;12.15;8.73;;;;;;;10.66;75.41;100636.02;2854692;82;21128;-63
2021/06/01 00:29:04;;;;;;;11.35;8.28;;;;;;;10.64;75.49;100637.09;2854837;83;21076;-63
2021/06/01 00:33:06;;;;;;;13.68;9.28;;;;;;;10.64;75.87;100637.09;2854807;82;21085;-62
2021/06/01 00:37:09;;;;;;;8.88;7.97;;;;;;;10.60;75.77;100639.13;2854654;82;21088;-63
2021/06/01 00:41:11;;;;;;;9.13;8.08;;;;;;;10.52;75.23;100637.08;2854813;83;21072;-63
2021/06/01 00:45:19;;;;;;;10.95;8.00;;;;;;;10.40;74.61;100633.52;2854737;82;21100;-63
2021/06/01 00:49:20;;;;;;;13.98;8.98;;;;;;;10.28;74.65;100629.95;2850973;82;21104;-63
2021/06/01 00:53:22;;;;;;;11.85;7.97;;;;;;;10.13;74.93;100633.78;2850678;83;21021;-62
2021/06/01 00:57:24;;;;;;;11.28;7.83;;;;;;;10.08;75.65;100638.56;2854477;82;21593;-62
2021/06/01 01:01:26;;;;;;;12.93;8.43;;;;;;;10.05;75.92;100629.03;2854445;83;21104;-63
2021/06/01 01:05:34;;;;;;;9.43;7.78;;;;;;;9.97;76.42;100633.58;2854491;83;21057;-63
2021/06/01 01:09:34;;;;;;;9.70;7.60;;;;;;;9.94;76.88;100637.80;2851983;81;21112;-63
2021/06/01 01:13:44;;;;;;;9.23;7.03;;;;;;;9.82;77.04;100630.22;2854827;83;21065;-62
2021/06/01 01:17:51;;;;;;;12.15;6.83;;;;;;;9.74;77.06;100635.26;2854511;83;21072;-63
2021/06/01 01:21:55;;;;;;;9.83;7.37;;;;;;;9.68;76.85;100635.72;2854596;83;21053;-63
2021/06/01 01:26:31;;;;;;;11.08;8.20;;;;;;;9.57;76.89;100632.02;2854503;82;21116;-63
2021/06/01 01:30:50;;;;;;;12.80;7.60;;;;;;;9.54;77.25;100630.91;2854184;82;21570;-62
2021/06/01 01:34:54;;;;;;;9.78;7.87;;;;;;;9.56;77.30;100625.50;2854457;83;21024;-62
2021/06/01 01:38:58;;;;;;;13.18;7.33;;;;;;;9.57;77.35;100624.05;2854355;83;21084;-63
2021/06/01 01:43:06;;;;;;;8.93;8.05;;;;;;;9.57;77.46;100620.06;2854454;83;21057;-62
2021/06/01 01:48:58;;;;;;;11.90;7.35;;;;;;;9.59;77.46;100622.62;2851239;81;21056;-62
2021/06/01 01:51:15;;;;;;;8.55;7.55;;;;;;;9.60;77.40;100616.81;2855905;81;21088;-62
2021/06/01 01:55:16;;;;;;;10.55;7.33;;;;;;;9.61;77.15;100613.19;2854553;81;21104;-60
2021/06/01 01:59:22;;;;;;;9.95;5.85;;;;;;;9.53;76.84;100615.08;2854252;83;21108;-60
2021/06/01 02:03:24;;;;;;;9.23;6.73;;;;;;;9.35;76.82;100614.61;2854637;83;21060;-60
2021/06/01 02:07:26;;;;;;;13.90;7.10;;;;;;;9.31;77.17;100616.63;2830526;84;21065;-59
2021/06/01 02:11:29;;;;;;;7.92;6.62;;;;;;;9.27;77.41;100613.82;2847108;82;21140;-60
2021/06/01 02:15:33;;;;;;;6.72;5.37;;;;;;;9.27;77.21;100612.50;2847066;82;21096;-60
2021/06/01 02:19:35;;;;;;;8.15;6.75;;;;;;;9.26;77.42;100612.99;2847077;83;21096;-60
2021/06/01 02:23:51;;;;;;;9.30;6.80;;;;;;;9.25;77.54;100608.64;2847270;82;21065;-60
2021/06/01 02:28:16;;;;;;;9.38;7.80;;;;;;;9.28;77.59;100619.03;2847081;83;21112;-60
2021/06/01 02:32:20;;;;;;;11.40;6.95;;;;;;;9.25;78.05;100612.63;2846969;83;21075;-60
2021/06/01 02:36:25;;;;;;;9.03;6.70;;;;;;;9.24;77.66;100616.23;2847220;83;21120;-60
2021/06/01 02:40:29;;;;;;;7.30;6.58;;;;;;;9.18;78.46;100611.34;2847139;83;21072;-60
2021/06/01 02:44:32;;;;;;;9.65;7.78;;;;;;;9.17;78.51;100605.66;2844328;82;21112;-60
2021/06/01 02:48:34;;;;;;;8.83;6.47;;;;;;;9.18;78.32;100603.37;2839493;83;21084;-59
2021/06/01 02:52:37;;;;;;;8.40;6.95;;;;;;;9.22;78.27;100606.67;2839450;83;21073;-60
2021/06/01 02:56:38;;;;;;;9.48;6.62;;;;;;;9.23;78.05;100602.56;2839721;83;21041;-60
2021/06/01 03:00:43;;;;;;;9.23;7.53;;;;;;;9.23;77.79;100601.23;2839519;83;21100;-62
2021/06/01 03:04:51;;;;;;;6.97;6.25;;;;;;;9.18;77.97;100600.72;2838925;83;21076;-62
2021/06/01 03:08:54;;;;;;;8.90;7.90;;;;;;;9.15;78.28;100599.62;2830212;82;21095;-63
2021/06/01 03:12:59;;;;;;;6.22;5.60;;;;;;;9.22;78.59;100601.36;2838434;83;21152;-62
2021/06/01 03:17:00;;;;;;;7.00;6.10;;;;;;;9.27;78.36;100598.76;2839518;81;21635;-63
2021/06/01 03:21:02;;;;;;;11.83;5.78;;;;;;;9.34;78.70;100599.64;2839455;83;21629;-62
2021/06/01 03:25:06;;;;;;;10.53;7.12;;;;;;;9.42;78.57;100591.95;2838930;83;21124;-63
2021/06/01 03:29:08;;;;;;;11.25;7.08;;;;;;;9.42;78.67;100586.64;2839475;83;21060;-63
2021/06/01 03:33:10;;;;;;;10.90;6.37;;;;;;;9.46;78.93;100592.59;2839239;83;21100;-63
2021/06/01 03:37:12;;;;;;;6.17;4.90;;;;;;;9.54;78.99;100584.44;2839132;83;21527;-62
2021/06/01 03:41:13;;;;;;;9.88;5.97;;;;;;;9.63;78.89;100589.56;2838956;83;21029;-62
2021/06/01 03:45:16;;;;;;;10.88;6.67;;;;;;;9.70;79.08;100589.96;2842722;81;21081;-63
2021/06/01 03:49:18;;;;;;;9.35;5.87;;;;;;;9.72;78.91;100594.67;2846998;82;21057;-63
2021/06/01 03:53:19;;;;;;;7.12;5.58;;;;;;;9.61;78.31;100593.27;2847026;83;21104;-62
2021/06/01 03:57:21;;;;;;;5.28;4.62;;;;;;;9.43;79.23;100589.20;2847012;83;21069;-61
2021/06/01 04:01:25;;;;;;;11.43;6.22;;;;;;;9.42;80.17;100588.84;2846949;83;21072;-63
2021/06/01 04:05:26;;;;;;;7.60;6.80;;;;;;;9.58;80.79;100592.55;2847009;83;21076;-61
2021/06/01 04:09:28;;;;;;;5.70;5.12;;;;;;;9.80;81.48;100594.12;2847236;82;21092;-62
2021/06/01 04:13:30;;;;;;;7.03;6.00;;;;;;;10.04;81.91;100581.29;2847015;83;21022;-63
2021/06/01 04:17:31;;;;;;;6.87;5.28;;;;;;;10.20;80.73;100580.50;2847196;83;21040;-63
2021/06/01 04:21:33;;;;;;;72.03;17.02;;;;;;;10.23;81.13;100582.92;2847173;83;21108;-62
2021/06/01 04:25:35;;;;;;;14.15;6.03;;;;;;;10.23;81.25;100580.77;2847240;82;22304;-63
2021/06/01 04:29:37;;;;;;;9.05;6.12;;;;;;;10.25;81.70;100574.34;2847116;82;21088;-63
2021/06/01 04:33:38;;;;;;;7.87;6.67;;;;;;;10.37;83.23;100577.88;2846892;83;21085;-63
2021/06/01 04:37:40;;;;;;;8.28;5.83;;;;;;;10.61;83.54;100573.48;2847129;83;21084;-63
2021/06/01 04:41:42;;;;;;;8.63;7.25;;;;;;;10.83;83.47;100579.33;2847226;83;21029;-63
2021/06/01 04:45:43;;;;;;;8.83;6.97;;;;;;;11.03;82.53;100586.22;2843433;83;21124;-63
2021/06/01 04:49:47;;;;;;;8.88;5.60;;;;;;;11.23;83.07;100584.62;2839648;82;21092;-63
2021/06/01 04:53:52;;;;;;;9.23;5.55;;;;;;;11.45;81.88;100582.89;2839562;82;21054;-63
2021/06/01 04:57:55;;;;;;;6.25;5.67;;;;;;;11.56;82.23;100579.70;2839876;83;21045;-64
2021/06/01 05:01:57;;;;;;;16.15;7.03;;;;;;;11.75;82.30;100582.70;2839698;83;21614;-63
2021/06/01 05:05:59;;;;;;;8.33;7.50;;;;;;;11.97;81.09;100577.75;2840035;83;21543;-64
2021/06/01 05:10:03;;;;;;;9.68;6.62;;;;;;;12.14;80.24;100585.22;2839995;83;21065;-64
2021/06/01 05:14:10;;;;;;;7.10;6.00;;;;;;;12.31;80.42;100582.96;2839930;82;21076;-63
2021/06/01 05:18:08;;;;;;;9.35;6.87;;;;;;;12.48;80.69;100587.36;2841034;81;21583;-64
2021/06/01 05:22:10;;;;;;;8.48;7.10;;;;;;;12.65;79.92;100586.76;2839906;82;21029;-64
2021/06/01 05:26:13;;;;;;;8.58;5.80;;;;;;;13.10;80.69;100578.03;2840093;83;21108;-63
2021/06/01 05:30:21;;;;;;;8.83;6.10;;;;;;;13.48;79.06;100575.65;2840075;83;21065;-63
2021/06/01 05:34:21;;;;;;;9.08;6.45;;;;;;;13.73;78.02;100573.42;2841265;81;21073;-64
2021/06/01 05:38:25;;;;;;;13.45;7.90;;;;;;;13.98;78.22;100573.38;2840486;81;21089;-63
2021/06/01 05:42:27;;;;;;;7.60;5.70;;;;;;;14.13;77.11;100574.60;2840248;83;21072;-64
2021/06/01 05:46:29;;;;;;;8.03;5.28;;;;;;;14.38;77.19;100576.36;2840387;83;21061;-64
2021/06/01 05:50:31;;;;;;;6.95;5.35;;;;;;;14.78;76.43;100576.28;2841317;82;21061;-63
2021/06/01 05:54:32;;;;;;;6.00;5.37;;;;;;;15.36;75.10;100577.00;2840803;82;21053;-64
2021/06/01 05:58:34;;;;;;;9.53;6.08;;;;;;;16.15;75.29;100568.41;2841045;83;21085;-64
2021/06/01 06:02:36;;;;;;;7.80;5.15;;;;;;;16.83;72.47;100574.88;2841177;83;21022;-64
2021/06/01 06:06:39;;;;;;;8.75;5.83;;;;;;;17.15;69.10;100576.08;2841519;83;21037;-64
2021/06/01 06:10:43;;;;;;;9.08;6.28;;;;;;;17.20;68.94;100583.66;2841432;83;21065;-64
2021/06/01 06:14:46;;;;;;;8.10;6.62;;;;;;;17.24;68.54;100585.02;2841476;83;21076;-64
2021/06/01 06:18:59;;;;;;;11.88;7.15;;;;;;;17.27;67.97;100583.34;2841560;83;21578;-65
2021/06/01 06:23:01;;;;;;;7.42;6.30;;;;;;;17.24;69.68;100583.15;2841382;82;21065;-64
2021/06/01 06:27:07;;;;;;;16.73;7.83;;;;;;;17.15;70.06;100586.83;2841426;83;21116;-64
2021/06/01 06:31:09;;;;;;;7.67;6.50;;;;;;;17.11;71.10;100583.61;2841663;82;21067;-64
2021/06/01 06:35:11;;;;;;;8.60;6.80;;;;;;;17.15;69.55;100583.28;2841595;83;21013;-64
2021/06/01 06:39:13;;;;;;;12.82;7.22;;;;;;;17.04;68.52;100581.73;2841596;83;21084;-64
2021/06/01 06:43:15;;;;;;;11.88;8.83;;;;;;;16.95;70.12;100578.98;2841758;83;21077;-65
2021/06/01 06:51:22;;;;;;;10.32;8.05;;;;;;;17.13;71.73;100578.91;2846343;83;21053;-64
2021/06/01 06:55:24;;;;;;;11.83;8.23;;;;;;;17.27;69.66;100578.79;2841887;83;21033;-64
2021/06/01 06:59:26;;;;;;;11.63;7.90;;;;;;;17.43;71.25;100577.16;2842021;83;21061;-64
2021/06/01 07:03:28;;;;;;;8.48;7.45;;;;;;;17.65;69.09;100574.37;2841658;83;21042;-65
2021/06/01 07:07:30;;;;;;;12.13;7.25;;;;;;;17.83;68.41;100568.01;2842159;83;21077;-64
2021/06/01 07:11:32;;;;;;;11.18;8.35;;;;;;;17.95;67.71;100569.86;2841945;82;21093;-64
2021/06/01 07:15:45;;;;;;;18.23;7.37;;;;;;;17.94;66.65;100566.31;2842242;83;21033;-64
2021/06/01 07:19:51;;;;;;;15.15;8.25;;;;;;;17.97;67.24;100563.80;2842096;83;21093;-65
2021/06/01 07:23:51;;;;;;;11.90;7.58;;;;;;;18.13;68.62;100550.38;2842513;81;21049;-64
2021/06/01 07:27:53;;;;;;;7.67;6.45;;;;;;;18.80;68.47;100547.55;2842405;83;21647;-64
2021/06/01 07:31:56;;;;;;;8.75;6.60;;;;;;;19.55;66.30;100543.50;2842925;82;21065;-64
2021/06/01 07:35:58;;;;;;;7.05;4.95;;;;;;;20.19;62.87;100534.77;2843127;82;21646;-64
2021/06/01 07:40:01;;;;;;;11.12;5.40;;;;;;;20.71;62.33;100530.83;2843563;83;21061;-64
2021/06/01 07:44:05;;;;;;;11.45;6.08;;;;;;;21.09;59.26;100532.08;2843719;83;21092;-64
2021/06/01 07:48:07;;;;;;;11.48;5.72;;;;;;;21.39;58.10;100524.41;2850037;83;21088;-64
2021/06/01 07:52:09;;;;;;;13.50;4.80;;;;;;;21.72;57.88;100522.59;2851516;83;21061;-64
2021/06/01 07:56:16;;;;;;;11.10;4.70;;;;;;;21.88;57.27;100526.07;2851683;82;21037;-64
2021/06/01 08:00:21;;;;;;;7.95;4.92;;;;;;;22.31;56.91;100525.17;2851994;82;21072;-64
2021/06/01 08:04:23;;;;;;;5.55;4.08;;;;;;;22.47;56.78;100512.67;2852096;82;21088;-64
2021/06/01 08:08:26;;;;;;;5.58;4.47;;;;;;;22.38;54.18;100513.31;2852202;83;21033;-64
2021/06/01 08:12:28;;;;;;;7.97;5.00;;;;;;;22.33;54.50;100513.08;2852128;82;21041;-64
2021/06/01 08:16:32;;;;;;;9.43;4.05;;;;;;;22.52;56.28;100506.16;2852330;82;21006;-64
2021/06/01 08:20:41;;;;;;;4.42;3.90;;;;;;;22.79;56.17;100504.07;2852301;82;21041;-64
2021/06/01 08:24:41;;;;;;;3.95;2.75;;;;;;;22.96;55.61;100505.41;2852330;82;21132;-65
2021/06/01 08:28:49;;;;;;;4.87;3.22;;;;;;;23.14;52.25;100501.83;2852535;83;21107;-65
2021/06/01 08:32:51;;;;;;;5.83;2.80;;;;;;;23.09;52.30;100501.08;2852441;82;21021;-64
2021/06/01 08:36:59;;;;;;;5.20;3.47;;;;;;;23.02;51.12;100499.69;2852332;82;21570;-65
2021/06/01 08:41:01;;;;;;;5.62;3.75;;;;;;;23.18;51.40;100493.59;2852418;82;21104;-64
2021/06/01 08:45:07;;;;;;;9.45;4.08;;;;;;;23.30;52.44;100492.00;2852552;82;21048;-65
2021/06/01 08:49:16;;;;;;;5.85;3.98;;;;;;;23.48;50.91;100485.96;2852800;83;21096;-64
2021/06/01 08:53:19;;;;;;;11.10;5.30;;;;;;;23.60;50.23;100481.29;2852674;83;21060;-65
2021/06/01 08:57:29;;;;;;;12.10;5.80;;;;;;;23.64;50.68;100480.64;2852894;82;21065;-65
2021/06/01 09:01:31;;;;;;;20.35;6.97;;;;;;;23.94;52.23;100464.45;2852892;83;21037;-64
2021/06/01 09:05:33;;;;;;;10.30;5.70;;;;;;;24.00;51.75;100457.34;2852724;83;21041;-64
2021/06/01 09:09:44;;;;;;;4.87;3.67;;;;;;;24.10;51.74;100455.08;2853091;83;21044;-65
2021/06/01 09:22:50;;;;;;;7.10;3.60;;;;;;;24.34;51.59;100447.28;2853089;82;21021;-65
2021/06/01 09:27:12;;;;;;;3.87;3.47;;;;;;;24.47;49.60;100446.41;2852793;82;21089;-64
2021/06/01 09:31:11;;;;;;;6.08;3.33;;;;;;;24.73;50.95;100437.82;2852305;82;21577;-62
2021/06/01 09:35:13;;;;;;;7.90;3.98;;;;;;;24.84;48.80;100431.75;2852660;82;21597;-62
2021/06/01 09:39:23;;;;;;;4.05;3.02;;;;;;;24.80;49.93;100431.34;2852926;83;21057;-62
2021/06/01 09:43:25;;;;;;;4.50;2.20;;;;;;;24.80;48.96;100425.89;2853259;82;21061;-62
2021/06/01 09:47:48;;;;;;;3.22;2.33;;;;;;;24.72;47.76;100418.48;2849471;82;21045;-62
2021/06/01 09:52:09;;;;;;;7.60;3.27;;;;;;;24.67;47.92;100410.99;2845529;83;21017;-62
2021/06/01 09:56:13;;;;;;;8.20;3.20;;;;;;;24.61;47.99;100410.48;2845682;83;21105;-62
2021/06/01 10:00:22;;;;;;;3.75;2.55;;;;;;;24.49;48.03;100397.58;2845817;82;21002;-62
2021/06/01 10:04:26;;;;;;;4.30;2.87;;;;;;;24.46;47.87;100397.98;2845629;82;21105;-62
2021/06/01 10:08:32;;;;;;;15.30;3.72;;;;;;;24.45;48.10;100392.23;2845583;83;21041;-62
2021/06/01 10:12:34;;;;;;;5.17;2.42;;;;;;;24.49;46.48;100381.27;2835292;83;21515;-63
2021/06/01 10:16:38;;;;;;;2.75;2.20;;;;;;;24.40;46.79;100387.98;2845538;82;21089;-62
2021/06/01 10:20:43;;;;;;;4.40;2.25;;;;;;;24.31;47.20;100381.12;2845454;83;21089;-62
2021/06/01 10:24:44;;;;;;;2.37;2.08;;;;;;;24.27;46.94;100386.66;2845946;83;21125;-62
2021/06/01 10:29:23;;;;;;;3.90;2.85;;;;;;;24.38;47.80;100376.48;2845870;82;21033;-62
2021/06/01 10:33:30;;;;;;;3.52;2.80;;;;;;;24.50;49.12;100388.88;2846062;82;21018;-62
2021/06/01 10:51:31;;;;;;;4.25;2.17;;;;;;;24.91;47.51;100360.44;2853630;82;21041;-63
2021/06/01 10:55:57;;;;;;;6.15;2.45;;;;;;;24.95;45.22;100354.86;2854489;81;21049;-62
2021/06/01 11:04:25;;;;;;;3.75;2.17;;;;;;;25.09;47.67;100358.34;2854046;83;21022;-63
2021/06/01 11:09:03;;;;;;;3.33;2.22;;;;;;;25.24;46.45;100345.77;2853820;83;21100;-62
2021/06/01 11:13:07;;;;;;;3.20;1.57;;;;;;;25.30;46.18;100347.28;2853672;83;21014;-62
2021/06/01 11:17:43;;;;;;;2.30;1.95;;;;;;;25.43;45.07;100338.16;2854137;82;20985;-62
2021/06/01 11:22:05;;;;;;;2.80;1.93;;;;;;;25.51;45.33;100336.02;2854034;83;21262;-62
2021/06/01 11:34:51;;;;;;;4.65;2.33;;;;;;;25.21;45.06;100332.60;2853128;83;21021;-61
2021/06/01 11:39:10;;;;;;;1.85;1.60;;;;;;;25.52;46.60;100333.59;2853427;83;21120;-61
2021/06/01 11:43:11;;;;;;;2.72;2.05;;;;;;;25.69;45.96;100338.47;2856146;81;21033;-62
2021/06/01 11:47:27;;;;;;;2.75;1.87;;;;;;;25.76;44.87;100331.08;2853562;83;21104;-62
2021/06/01 11:51:29;;;;;;;16.42;4.50;;;;;;;25.59;41.01;100327.28;2856294;81;21041;-62
2021/06/01 11:55:31;;;;;;;3.72;1.62;;;;;;;25.60;41.39;100327.58;2853444;82;21104;-62
2021/06/01 12:04:10;;;;;;;3.22;2.02;;;;;;;25.61;40.50;100329.24;2853209;83;21124;-63
2021/06/01 12:21:28;;;;;;;4.28;2.70;;;;;;;25.25;45.81;100304.39;2853655;82;21068;-62
2021/06/01 12:25:30;;;;;;;3.10;2.25;;;;;;;25.14;47.27;100297.78;2853782;83;21140;-62
2021/06/01 12:34:00;;;;;;;19.80;4.95;;;;;;;24.94;45.45;100293.34;2853318;83;21081;-62
2021/06/01 13:36:28;;;;;;;;;;;;;;;25.40;48.13;100261.88;2847079;82;21084;-63
2021/06/01 13:58:25;;;;;;;2.55;1.90;;;;;;;25.86;48.72;100252.06;2806306;83;21061;-62
2021/06/01 14:10:51;;;;;;;3.47;2.85;;;;;;;25.85;48.93;100250.41;2871469;82;21053;-63
2021/06/01 14:36:33;;;;;;;4.30;2.83;;;;;;;26.33;45.85;100224.22;2919674;81;21028;-64
2021/06/01 15:32:33;;;;;;;3.72;2.60;;;;;;;25.92;48.31;100179.78;2871816;82;21044;-65
2021/06/01 15:50:20;;;;;;;3.40;2.58;;;;;;;25.08;50.20;100178.96;2897657;81;21096;-64
2021/06/01 17:03:59;;;;;;;4.95;4.28;;;;;;;17.24;82.74;100274.55;2865199;82;21413;-65
2021/06/01 17:08:05;;;;;;;3.77;3.35;;;;;;;17.27;84.78;100275.55;2861610;82;21048;-64
2021/06/01 17:12:00;;;;;;;3.85;3.35;;;;;;;17.35;84.82;100269.32;2862295;82;21068;-63
2021/06/01 17:16:05;;;;;;;7.87;3.22;;;;;;;17.35;83.77;100263.94;2863827;81;21562;-62
2021/06/01 17:20:31;;;;;;;4.33;2.67;;;;;;;17.34;83.93;100259.58;2864228;82;21553;-61
2021/06/01 17:36:53;;;;;;;7.15;4.75;;;;;;;17.32;84.05;100246.29;2864463;83;21108;-60
2021/06/01 17:40:58;;;;;;;5.80;4.05;;;;;;;17.21;85.87;100250.70;2864471;82;21550;-61
2021/06/01 17:45:06;;;;;;;12.10;6.42;;;;;;;17.14;86.96;100253.22;2864122;82;21104;-60
2021/06/01 17:49:09;;;;;;;4.30;3.40;;;;;;;17.22;89.55;100260.44;2875812;81;21077;-62
2021/06/01 17:54:00;;;;;;;4.85;2.95;;;;;;;17.32;89.74;100267.80;3066142;77;24065;-62
2021/06/01 17:58:02;;;;;;;3.22;2.92;;;;;;;17.22;87.63;100267.16;3020149;78;21050;-62
2021/06/01 18:02:06;;;;;;;3.10;2.80;;;;;;;17.12;88.44;100265.99;3020152;78;20971;-63
2021/06/01 18:06:10;;;;;;;4.08;2.90;;;;;;;17.09;88.86;100264.47;3020304;78;21022;-62
2021/06/01 18:40:59;;;;;;;3.58;3.17;;;;;;;17.03;91.75;100286.66;2827674;81;21025;-66
2021/06/01 19:53:22;;;;;;;7.70;6.85;;;;;;;16.60;90.43;100331.06;2966893;80;21042;-66
2021/06/01 19:57:27;;;;;;;8.85;6.67;;;;;;;16.62;90.62;100332.25;2967271;80;21046;-67
2021/06/01 20:01:30;;;;;;;9.90;7.67;;;;;;;16.61;90.35;100328.70;2967250;80;20939;-65
2021/06/01 20:05:33;;;;;;;11.83;8.20;;;;;;;16.59;89.63;100332.06;2966735;80;21058;-66
2021/06/01 20:09:35;;;;;;;19.50;9.93;;;;;;;16.46;88.05;100330.34;2967245;80;21065;-65
2021/06/01 20:13:37;;;;;;;9.33;7.60;;;;;;;16.39;89.42;100332.83;2967104;80;21030;-65
2021/06/01 20:17:43;;;;;;;15.38;7.87;;;;;;;16.40;89.36;100337.20;2967129;80;21520;-67
2021/06/01 20:21:50;;;;;;;11.18;7.25;;;;;;;16.37;88.48;100341.06;2966704;80;21058;-67
2021/06/01 20:25:57;;;;;;;11.25;6.55;;;;;;;16.28;88.56;100340.68;2966450;78;21094;-67
2021/06/01 20:30:03;;;;;;;8.88;6.03;;;;;;;16.23;88.59;100348.38;2966888;80;21062;-67
2021/06/01 20:34:05;;;;;;;8.30;6.20;;;;;;;16.21;88.92;100341.00;2967006;80;21042;-65
2021/06/01 20:38:07;;;;;;;8.10;5.85;;;;;;;16.25;90.86;100341.01;2967072;80;21007;-66
2021/06/01 20:42:10;;;;;;;9.08;5.42;;;;;;;16.30;91.26;100342.70;2966966;80;21053;-66
2021/06/01 20:46:13;;;;;;;6.85;5.33;;;;;;;16.33;90.24;100343.74;2967199;80;21058;-65
2021/06/01 20:50:17;;;;;;;8.03;4.42;;;;;;;16.33;90.79;100341.55;2966785;80;20998;-65
2021/06/01 20:54:19;;;;;;;7.67;4.55;;;;;;;16.30;89.11;100331.14;2966823;80;21057;-65
2021/06/01 20:58:43;;;;;;;6.95;5.15;;;;;;;16.11;87.26;100334.41;2967019;80;21054;-66
2021/06/01 21:02:45;;;;;;;5.15;4.65;;;;;;;15.94;87.16;100341.55;2966771;80;20963;-66
2021/06/01 21:06:48;;;;;;;10.85;7.67;;;;;;;15.83;87.82;100342.64;2967165;80;21049;-65
2021/06/01 21:10:51;;;;;;;11.80;6.08;;;;;;;15.88;90.54;100352.38;2967050;80;21018;-65
2021/06/01 21:14:53;;;;;;;7.45;5.03;;;;;;;15.85;88.70;100364.27;2966902;80;21047;-66
2021/06/01 21:18:59;;;;;;;4.67;3.87;;;;;;;15.78;90.16;100357.86;2966711;80;20959;-65
2021/06/01 21:23:02;;;;;;;9.80;5.30;;;;;;;15.73;90.32;100352.14;2966756;80;20991;-64
2021/06/01 21:27:05;;;;;;;12.07;6.53;;;;;;;15.66;89.86;100362.65;2966521;79;21093;-65
2021/06/01 21:31:08;;;;;;;9.68;6.30;;;;;;;15.58;90.68;100371.13;2966624;80;21034;-65
2021/06/01 21:35:15;;;;;;;8.23;5.50;;;;;;;15.52;89.38;100376.09;2966626;80;20971;-66
2021/06/01 21:39:21;;;;;;;7.78;5.87;;;;;;;15.37;89.53;100373.14;2966988;80;20995;-64
2021/06/01 21:43:24;;;;;;;10.13;6.08;;;;;;;15.36;90.59;100382.70;2966988;80;21008;-65
2021/06/01 21:47:28;;;;;;;8.23;5.92;;;;;;;15.35;91.15;100376.99;2966523;80;21062;-65
2021/06/01 21:51:34;;;;;;;8.08;6.72;;;;;;;15.39;91.53;100375.17;2966403;80;21062;-64
2021/06/01 21:55:38;;;;;;;8.58;6.78;;;;;;;15.39;91.81;100375.68;2966846;80;21034;-65
2021/06/01 21:59:43;;;;;;;8.03;7.12;;;;;;;15.37;91.69;100372.31;2966587;80;21042;-64
2021/06/01 22:03:45;;;;;;;12.15;8.18;;;;;;;15.46;93.05;100372.71;2966803;80;21037;-64
2021/06/01 22:07:49;;;;;;;12.35;7.62;;;;;;;15.58;93.65;100383.20;2967083;80;21515;-65
2021/06/01 22:11:52;;;;;;;10.20;6.75;;;;;;;15.60;93.69;100386.05;2966554;80;21504;-64
2021/06/01 22:15:58;;;;;;;12.50;7.12;;;;;;;15.63;91.79;100388.44;2966737;80;21019;-64
2021/06/01 22:20:02;;;;;;;12.55;8.43;;;;;;;15.65;94.06;100389.61;2966804;80;21049;-64
2021/06/01 22:24:06;;;;;;;9.68;7.08;;;;;;;15.67;91.90;100391.62;2966840;80;21025;-64
2021/06/01 22:28:08;;;;;;;9.98;6.50;;;;;;;15.61;90.70;100385.05;2967185;78;21046;-63
2021/06/01 22:32:10;;;;;;;11.00;6.87;;;;;;;15.46;91.66;100390.13;2966819;80;21010;-63
2021/06/01 22:36:23;;;;;;;8.40;6.10;;;;;;;15.42;92.61;100392.79;2967108;80;21022;-63
2021/06/01 22:40:25;;;;;;;32.45;21.07;;;;;;;15.37;90.78;100387.06;2965899;80;20967;-63
2021/06/01 22:44:28;;;;;;;16.75;10.70;;;;;;;15.23;91.08;100383.06;2967134;80;21626;-62
2021/06/01 22:48:34;;;;;;;19.02;14.60;;;;;;;15.24;92.71;100383.44;2967372;80;21050;-62
2021/06/01 22:52:36;;;;;;;34.08;24.50;;;;;;;15.34;93.16;100380.16;2967222;80;20986;-62
2021/06/01 22:56:43;;;;;;;54.03;41.30;;;;;;;15.29;92.82;100389.17;2967178;80;21062;-63
2021/06/01 23:00:45;;;;;;;51.37;32.67;;;;;;;15.35;93.44;100387.20;2965997;80;21030;-64
2021/06/01 23:04:51;;;;;;;47.33;33.73;;;;;;;15.51;95.14;100389.67;2967262;80;21500;-63
2021/06/01 23:08:59;;;;;;;28.85;20.10;;;;;;;15.54;92.98;100382.66;2967189;80;21014;-63
2021/06/01 23:13:08;;;;;;;17.70;12.35;;;;;;;15.45;91.84;100388.97;2966894;80;21049;-63
2021/06/01 23:17:13;;;;;;;43.40;31.00;;;;;;;15.45;94.24;100388.45;2967168;80;21046;-63
2021/06/01 23:21:15;;;;;;;119.00;88.50;;;;;;;15.37;92.37;100383.86;2966853;80;21480;-63
2021/06/01 23:25:18;;;;;;;282.02;210.40;;;;;;;15.30;92.46;100384.15;2967093;79;20995;-63
2021/06/01 23:29:22;;;;;;;141.07;111.03;;;;;;;15.17;92.68;100383.20;2966896;80;21010;-63
2021/06/01 23:33:24;;;;;;;127.40;90.72;;;;;;;15.00;93.11;100378.17;2966730;80;20986;-62
2021/06/01 23:37:26;;;;;;;128.95;96.67;;;;;;;14.84;93.78;100384.22;2967351;80;21006;-62
2021/06/01 23:41:27;;;;;;;81.78;59.23;;;;;;;14.75;94.51;100387.30;2967182;80;21026;-62
2021/06/01 23:45:33;;;;;;;62.33;46.18;;;;;;;14.71;94.80;100393.44;2966895;80;21030;-63
2021/06/01 23:53:54;;;;;;;16.93;10.82;;;;;;;14.81;96.10;100398.73;2966367;80;21583;-63
2021/06/01 23:57:56;;;;;;;13.35;9.20;;;;;;;14.95;95.85;100389.84;2966719;80;21556;-63
